sensor_id;sensor_type;location;lat;lon;timestamp;P1;durP1;ratioP1;P2;durP2;ratioP2
17890;SDS011;9071;48.220;14.480;2022-07-24T00:05:02;8.75;;;7.47;;
17890;SDS011;9071;48.220;14.480;2022-07-24T00:10:06;9.63;;;8.02;;
17890;SDS011;9071;48.220;14.480;2022-07-24T00:15:09;10.30;;;8.48;;
17890;SDS011;9071;48.220;14.480;2022-07-24T00:20:12;11.70;;;7.85;;
17890;SDS011;9071;48.220;14.480;2022-07-24T00:25:15;9.38;;;8.38;;
17890;SDS011;9071;48.220;14.480;2022-07-24T00:30:17;9.35;;;7.68;;
17890;SDS011;9071;48.220;14.480;2022-07-24T00:35:19;10.20;;;7.97;;
17890;SDS011;9071;48.220;14.480;2022-07-24T00:40:23;9.55;;;7.53;;
17890;SDS011;9071;48.220;14.480;2022-07-24T00:45:26;9.10;;;7.40;;
17890;SDS011;9071;48.220;14.480;2022-07-24T00:50:28;8.88;;;6.72;;
17890;SDS011;9071;48.220;14.480;2022-07-24T00:55:32;10.02;;;7.00;;
17890;SDS011;9071;48.220;14.480;2022-07-24T01:00:34;8.27;;;7.38;;
17890;SDS011;9071;48.220;14.480;2022-07-24T01:05:37;9.38;;;7.78;;
17890;SDS011;9071;48.220;14.480;2022-07-24T01:10:40;8.40;;;7.40;;
17890;SDS011;9071;48.220;14.480;2022-07-24T01:15:44;8.35;;;6.78;;
17890;SDS011;9071;48.220;14.480;2022-07-24T01:20:50;8.27;;;7.38;;
17890;SDS011;9071;48.220;14.480;2022-07-24T01:25:52;10.02;;;7.30;;
17890;SDS011;9071;48.220;14.480;2022-07-24T01:30:54;10.18;;;7.10;;
17890;SDS011;9071;48.220;14.480;2022-07-24T01:35:57;9.85;;;7.90;;
17890;SDS011;9071;48.220;14.480;2022-07-24T01:41:00;13.27;;;9.80;;
17890;SDS011;9071;48.220;14.480;2022-07-24T01:46:02;11.65;;;8.95;;
17890;SDS011;9071;48.220;14.480;2022-07-24T01:51:05;10.77;;;7.90;;
17890;SDS011;9071;48.220;14.480;2022-07-24T01:56:08;12.00;;;8.35;;
17890;SDS011;9071;48.220;14.480;2022-07-24T02:01:10;9.80;;;7.55;;
17890;SDS011;9071;48.220;14.480;2022-07-24T02:06:13;10.85;;;7.38;;
17890;SDS011;9071;48.220;14.480;2022-07-24T02:11:16;10.18;;;7.57;;
17890;SDS011;9071;48.220;14.480;2022-07-24T02:16:18;10.70;;;7.38;;
17890;SDS011;9071;48.220;14.480;2022-07-24T02:21:21;8.50;;;7.40;;
17890;SDS011;9071;48.220;14.480;2022-07-24T02:26:23;11.00;;;8.05;;
17890;SDS011;9071;48.220;14.480;2022-07-24T02:31:26;10.00;;;8.25;;
17890;SDS011;9071;48.220;14.480;2022-07-24T02:36:29;12.43;;;8.55;;
17890;SDS011;9071;48.220;14.480;2022-07-24T02:41:31;9.55;;;8.57;;
17890;SDS011;9071;48.220;14.480;2022-07-24T02:46:33;15.68;;;9.07;;
17890;SDS011;9071;48.220;14.480;2022-07-24T02:51:37;11.73;;;9.13;;
17890;SDS011;9071;48.220;14.480;2022-07-24T02:56:39;10.68;;;8.25;;
17890;SDS011;9071;48.220;14.480;2022-07-24T03:01:41;10.63;;;8.27;;
17890;SDS011;9071;48.220;14.480;2022-07-24T03:06:44;10.75;;;8.63;;
17890;SDS011;9071;48.220;14.480;2022-07-24T03:11:46;9.93;;;8.45;;
17890;SDS011;9071;48.220;14.480;2022-07-24T03:16:48;9.40;;;7.95;;
17890;SDS011;9071;48.220;14.480;2022-07-24T03:21:52;11.18;;;8.48;;
17890;SDS011;9071;48.220;14.480;2022-07-24T03:26:54;12.50;;;9.48;;
17890;SDS011;9071;48.220;14.480;2022-07-24T03:31:56;11.93;;;9.05;;
17890;SDS011;9071;48.220;14.480;2022-07-24T03:36:59;11.48;;;9.80;;
17890;SDS011;9071;48.220;14.480;2022-07-24T03:42:01;12.65;;;9.52;;
17890;SDS011;9071;48.220;14.480;2022-07-24T03:47:04;11.63;;;9.98;;
17890;SDS011;9071;48.220;14.480;2022-07-24T03:52:08;12.60;;;9.95;;
17890;SDS011;9071;48.220;14.480;2022-07-24T03:57:10;14.25;;;10.82;;
17890;SDS011;9071;48.220;14.480;2022-07-24T04:02:13;12.27;;;10.65;;
17890;SDS011;9071;48.220;14.480;2022-07-24T04:07:16;12.93;;;10.40;;
17890;SDS011;9071;48.220;14.480;2022-07-24T04:12:18;11.00;;;9.80;;
17890;SDS011;9071;48.220;14.480;2022-07-24T04:17:20;13.93;;;9.55;;
17890;SDS011;9071;48.220;14.480;2022-07-24T04:22:24;10.50;;;9.40;;
17890;SDS011;9071;48.220;14.480;2022-07-24T04:27:26;14.90;;;10.02;;
17890;SDS011;9071;48.220;14.480;2022-07-24T04:32:28;12.70;;;9.65;;
17890;SDS011;9071;48.220;14.480;2022-07-24T04:37:31;11.60;;;10.00;;
17890;SDS011;9071;48.220;14.480;2022-07-24T04:42:33;13.50;;;10.27;;
17890;SDS011;9071;48.220;14.480;2022-07-24T04:47:35;12.90;;;10.68;;
17890;SDS011;9071;48.220;14.480;2022-07-24T04:52:39;13.23;;;10.35;;
17890;SDS011;9071;48.220;14.480;2022-07-24T04:57:42;13.30;;;9.20;;
17890;SDS011;9071;48.220;14.480;2022-07-24T05:02:44;12.38;;;9.85;;
17890;SDS011;9071;48.220;14.480;2022-07-24T05:07:48;14.73;;;9.77;;
17890;SDS011;9071;48.220;14.480;2022-07-24T05:12:50;19.20;;;10.43;;
17890;SDS011;9071;48.220;14.480;2022-07-24T05:17:52;13.90;;;9.32;;
17890;SDS011;9071;48.220;14.480;2022-07-24T05:22:55;10.38;;;8.73;;
17890;SDS011;9071;48.220;14.480;2022-07-24T05:27:57;11.70;;;9.95;;
17890;SDS011;9071;48.220;14.480;2022-07-24T05:32:59;12.73;;;10.65;;
17890;SDS011;9071;48.220;14.480;2022-07-24T05:38:03;10.15;;;9.15;;
17890;SDS011;9071;48.220;14.480;2022-07-24T05:43:05;9.60;;;8.63;;
17890;SDS011;9071;48.220;14.480;2022-07-24T05:48:07;10.95;;;9.38;;
17890;SDS011;9071;48.220;14.480;2022-07-24T05:53:11;14.57;;;10.93;;
17890;SDS011;9071;48.220;14.480;2022-07-24T05:58:13;11.55;;;9.50;;
17890;SDS011;9071;48.220;14.480;2022-07-24T06:03:15;13.15;;;9.07;;
17890;SDS011;9071;48.220;14.480;2022-07-24T06:08:19;12.98;;;10.40;;
17890;SDS011;9071;48.220;14.480;2022-07-24T06:13:21;11.50;;;10.13;;
17890;SDS011;9071;48.220;14.480;2022-07-24T06:18:23;11.15;;;10.05;;
17890;SDS011;9071;48.220;14.480;2022-07-24T06:23:26;13.18;;;11.40;;
17890;SDS011;9071;48.220;14.480;2022-07-24T06:28:28;12.95;;;10.32;;
17890;SDS011;9071;48.220;14.480;2022-07-24T06:33:30;11.73;;;10.63;;
17890;SDS011;9071;48.220;14.480;2022-07-24T06:38:34;11.70;;;10.52;;
17890;SDS011;9071;48.220;14.480;2022-07-24T06:43:37;11.73;;;10.52;;
17890;SDS011;9071;48.220;14.480;2022-07-24T06:48:39;14.05;;;9.98;;
17890;SDS011;9071;48.220;14.480;2022-07-24T06:53:43;11.77;;;10.00;;
17890;SDS011;9071;48.220;14.480;2022-07-24T06:58:47;9.73;;;8.73;;
17890;SDS011;9071;48.220;14.480;2022-07-24T07:03:49;9.80;;;8.75;;
17890;SDS011;9071;48.220;14.480;2022-07-24T07:08:52;10.35;;;8.68;;
17890;SDS011;9071;48.220;14.480;2022-07-24T07:13:54;12.85;;;8.35;;
17890;SDS011;9071;48.220;14.480;2022-07-24T07:18:56;8.73;;;7.85;;
17890;SDS011;9071;48.220;14.480;2022-07-24T07:24:00;9.32;;;8.18;;
17890;SDS011;9071;48.220;14.480;2022-07-24T07:29:02;9.35;;;8.30;;
17890;SDS011;9071;48.220;14.480;2022-07-24T07:34:04;8.38;;;7.60;;
17890;SDS011;9071;48.220;14.480;2022-07-24T07:39:07;8.45;;;7.43;;
17890;SDS011;9071;48.220;14.480;2022-07-24T07:44:09;8.30;;;7.50;;
17890;SDS011;9071;48.220;14.480;2022-07-24T07:49:12;12.05;;;8.13;;
17890;SDS011;9071;48.220;14.480;2022-07-24T07:54:15;9.68;;;8.18;;
17890;SDS011;9071;48.220;14.480;2022-07-24T07:59:17;9.23;;;8.00;;
17890;SDS011;9071;48.220;14.480;2022-07-24T08:04:19;8.57;;;7.70;;
17890;SDS011;9071;48.220;14.480;2022-07-24T08:09:23;8.60;;;7.80;;
17890;SDS011;9071;48.220;14.480;2022-07-24T08:14:25;8.50;;;7.70;;
17890;SDS011;9071;48.220;14.480;2022-07-24T08:19:27;9.00;;;7.78;;
17890;SDS011;9071;48.220;14.480;2022-07-24T08:24:30;10.95;;;8.63;;
17890;SDS011;9071;48.220;14.480;2022-07-24T08:29:33;10.82;;;7.90;;
17890;SDS011;9071;48.220;14.480;2022-07-24T08:34:35;12.32;;;9.55;;
17890;SDS011;9071;48.220;14.480;2022-07-24T08:39:39;10.77;;;8.80;;
17890;SDS011;9071;48.220;14.480;2022-07-24T08:44:41;12.35;;;9.63;;
17890;SDS011;9071;48.220;14.480;2022-07-24T08:49:43;15.20;;;9.80;;
17890;SDS011;9071;48.220;14.480;2022-07-24T08:54:50;9.18;;;8.23;;
17890;SDS011;9071;48.220;14.480;2022-07-24T08:59:52;9.75;;;8.75;;
17890;SDS011;9071;48.220;14.480;2022-07-24T09:04:57;11.15;;;8.65;;
17890;SDS011;9071;48.220;14.480;2022-07-24T09:10:02;10.57;;;8.95;;
17890;SDS011;9071;48.220;14.480;2022-07-24T09:15:15;10.18;;;8.25;;
17890;SDS011;9071;48.220;14.480;2022-07-24T09:20:19;9.95;;;8.95;;
17890;SDS011;9071;48.220;14.480;2022-07-24T09:25:24;9.70;;;8.07;;
17890;SDS011;9071;48.220;14.480;2022-07-24T09:30:28;8.75;;;7.88;;
17890;SDS011;9071;48.220;14.480;2022-07-24T09:35:32;9.85;;;8.75;;
17890;SDS011;9071;48.220;14.480;2022-07-24T09:40:39;8.35;;;7.55;;
17890;SDS011;9071;48.220;14.480;2022-07-24T09:45:50;6.28;;;5.70;;
17890;SDS011;9071;48.220;14.480;2022-07-24T09:50:55;7.35;;;6.50;;
17890;SDS011;9071;48.220;14.480;2022-07-24T09:56:02;7.70;;;6.80;;
17890;SDS011;9071;48.220;14.480;2022-07-24T10:01:07;9.48;;;7.72;;
17890;SDS011;9071;48.220;14.480;2022-07-24T10:06:11;8.13;;;7.28;;
17890;SDS011;9071;48.220;14.480;2022-07-24T10:11:17;9.93;;;7.53;;
17890;SDS011;9071;48.220;14.480;2022-07-24T10:16:27;7.88;;;7.07;;
17890;SDS011;9071;48.220;14.480;2022-07-24T10:21:32;8.05;;;7.25;;
17890;SDS011;9071;48.220;14.480;2022-07-24T10:26:36;7.88;;;7.07;;
17890;SDS011;9071;48.220;14.480;2022-07-24T10:31:40;7.20;;;6.55;;
17890;SDS011;9071;48.220;14.480;2022-07-24T10:36:45;7.32;;;6.60;;
17890;SDS011;9071;48.220;14.480;2022-07-24T10:42:00;7.95;;;7.15;;
17890;SDS011;9071;48.220;14.480;2022-07-24T10:47:05;8.10;;;6.32;;
17890;SDS011;9071;48.220;14.480;2022-07-24T10:52:09;6.55;;;5.95;;
17890;SDS011;9071;48.220;14.480;2022-07-24T10:57:14;6.82;;;5.93;;
17890;SDS011;9071;48.220;14.480;2022-07-24T11:02:26;7.28;;;5.88;;
17890;SDS011;9071;48.220;14.480;2022-07-24T11:07:29;7.00;;;5.85;;
17890;SDS011;9071;48.220;14.480;2022-07-24T11:12:33;7.90;;;6.93;;
17890;SDS011;9071;48.220;14.480;2022-07-24T11:17:42;7.55;;;6.85;;
17890;SDS011;9071;48.220;14.480;2022-07-24T11:22:46;6.85;;;6.25;;
17890;SDS011;9071;48.220;14.480;2022-07-24T11:27:55;9.30;;;7.03;;
17890;SDS011;9071;48.220;14.480;2022-07-24T11:32:58;7.40;;;6.40;;
17890;SDS011;9071;48.220;14.480;2022-07-24T11:38:02;7.03;;;6.32;;
17890;SDS011;9071;48.220;14.480;2022-07-24T11:43:06;7.07;;;6.38;;
17890;SDS011;9071;48.220;14.480;2022-07-24T11:48:17;7.55;;;6.85;;
17890;SDS011;9071;48.220;14.480;2022-07-24T11:53:20;7.32;;;6.60;;
17890;SDS011;9071;48.220;14.480;2022-07-24T11:58:23;8.25;;;6.50;;
17890;SDS011;9071;48.220;14.480;2022-07-24T12:03:25;6.80;;;6.10;;
17890;SDS011;9071;48.220;14.480;2022-07-24T12:08:28;7.53;;;5.90;;
17890;SDS011;9071;48.220;14.480;2022-07-24T12:13:31;6.53;;;5.72;;
17890;SDS011;9071;48.220;14.480;2022-07-24T12:18:34;8.00;;;6.28;;
17890;SDS011;9071;48.220;14.480;2022-07-24T12:23:36;6.25;;;5.72;;
17890;SDS011;9071;48.220;14.480;2022-07-24T12:28:40;9.48;;;6.03;;
17890;SDS011;9071;48.220;14.480;2022-07-24T12:33:42;10.23;;;6.30;;
17890;SDS011;9071;48.220;14.480;2022-07-24T12:38:55;6.50;;;5.90;;
17890;SDS011;9071;48.220;14.480;2022-07-24T12:44:00;7.10;;;5.93;;
17890;SDS011;9071;48.220;14.480;2022-07-24T12:49:03;7.07;;;5.90;;
17890;SDS011;9071;48.220;14.480;2022-07-24T12:54:07;6.47;;;5.72;;
17890;SDS011;9071;48.220;14.480;2022-07-24T12:59:10;6.35;;;5.75;;
17890;SDS011;9071;48.220;14.480;2022-07-24T13:04:23;6.20;;;5.60;;
17890;SDS011;9071;48.220;14.480;2022-07-24T13:09:28;6.22;;;5.53;;
17890;SDS011;9071;48.220;14.480;2022-07-24T13:14:31;6.45;;;5.88;;
17890;SDS011;9071;48.220;14.480;2022-07-24T13:19:34;6.32;;;5.72;;
17890;SDS011;9071;48.220;14.480;2022-07-24T13:24:37;7.82;;;5.68;;
17890;SDS011;9071;48.220;14.480;2022-07-24T13:29:42;5.75;;;5.20;;
17890;SDS011;9071;48.220;14.480;2022-07-24T13:34:44;7.88;;;5.93;;
17890;SDS011;9071;48.220;14.480;2022-07-24T13:39:46;5.97;;;5.47;;
17890;SDS011;9071;48.220;14.480;2022-07-24T13:44:50;5.95;;;5.20;;
17890;SDS011;9071;48.220;14.480;2022-07-24T13:49:52;6.88;;;5.30;;
17890;SDS011;9071;48.220;14.480;2022-07-24T13:54:54;6.28;;;5.30;;
17890;SDS011;9071;48.220;14.480;2022-07-24T13:59:57;6.32;;;5.72;;
17890;SDS011;9071;48.220;14.480;2022-07-24T14:04:59;6.20;;;5.60;;
17890;SDS011;9071;48.220;14.480;2022-07-24T14:10:02;5.70;;;5.20;;
17890;SDS011;9071;48.220;14.480;2022-07-24T14:15:06;6.30;;;5.70;;
17890;SDS011;9071;48.220;14.480;2022-07-24T14:20:10;6.45;;;5.85;;
17890;SDS011;9071;48.220;14.480;2022-07-24T14:25:13;7.65;;;5.47;;
17890;SDS011;9071;48.220;14.480;2022-07-24T14:30:16;6.07;;;5.47;;
17890;SDS011;9071;48.220;14.480;2022-07-24T14:35:19;6.20;;;5.65;;
17890;SDS011;9071;48.220;14.480;2022-07-24T14:40:21;5.50;;;5.00;;
17890;SDS011;9071;48.220;14.480;2022-07-24T14:45:24;5.80;;;5.30;;
17890;SDS011;9071;48.220;14.480;2022-07-24T14:50:27;6.18;;;5.35;;
17890;SDS011;9071;48.220;14.480;2022-07-24T14:55:29;6.10;;;5.50;;
17890;SDS011;9071;48.220;14.480;2022-07-24T15:00:33;7.53;;;5.88;;
17890;SDS011;9071;48.220;14.480;2022-07-24T15:05:35;7.28;;;6.15;;
17890;SDS011;9071;48.220;14.480;2022-07-24T15:10:37;9.25;;;6.25;;
17890;SDS011;9071;48.220;14.480;2022-07-24T15:15:40;5.80;;;5.30;;
17890;SDS011;9071;48.220;14.480;2022-07-24T15:20:43;6.70;;;6.10;;
17890;SDS011;9071;48.220;14.480;2022-07-24T15:25:45;6.38;;;5.57;;
17890;SDS011;9071;48.220;14.480;2022-07-24T15:30:49;5.32;;;4.82;;
17890;SDS011;9071;48.220;14.480;2022-07-24T15:35:51;6.13;;;5.53;;
17890;SDS011;9071;48.220;14.480;2022-07-24T15:40:53;7.10;;;5.47;;
17890;SDS011;9071;48.220;14.480;2022-07-24T15:45:58;6.57;;;5.88;;
17890;SDS011;9071;48.220;14.480;2022-07-24T15:51:00;6.50;;;5.90;;
17890;SDS011;9071;48.220;14.480;2022-07-24T15:56:02;5.88;;;5.35;;
17890;SDS011;9071;48.220;14.480;2022-07-24T16:01:06;6.88;;;6.28;;
17890;SDS011;9071;48.220;14.480;2022-07-24T16:06:08;5.88;;;5.38;;
17890;SDS011;9071;48.220;14.480;2022-07-24T16:11:10;6.60;;;5.45;;
17890;SDS011;9071;48.220;14.480;2022-07-24T16:16:13;6.50;;;6.00;;
17890;SDS011;9071;48.220;14.480;2022-07-24T16:21:16;6.68;;;6.07;;
17890;SDS011;9071;48.220;14.480;2022-07-24T16:26:18;6.80;;;5.68;;
17890;SDS011;9071;48.220;14.480;2022-07-24T16:31:21;6.55;;;5.45;;
17890;SDS011;9071;48.220;14.480;2022-07-24T16:36:24;7.70;;;5.65;;
17890;SDS011;9071;48.220;14.480;2022-07-24T16:41:26;6.45;;;5.85;;
17890;SDS011;9071;48.220;14.480;2022-07-24T16:46:30;9.85;;;6.55;;
17890;SDS011;9071;48.220;14.480;2022-07-24T16:51:32;8.77;;;6.50;;
17890;SDS011;9071;48.220;14.480;2022-07-24T16:56:34;6.32;;;5.72;;
17890;SDS011;9071;48.220;14.480;2022-07-24T17:01:37;7.15;;;6.43;;
17890;SDS011;9071;48.220;14.480;2022-07-24T17:06:39;6.20;;;5.68;;
17890;SDS011;9071;48.220;14.480;2022-07-24T17:11:43;6.60;;;6.00;;
17890;SDS011;9071;48.220;14.480;2022-07-24T17:16:46;7.35;;;5.65;;
17890;SDS011;9071;48.220;14.480;2022-07-24T17:21:57;6.50;;;5.60;;
17890;SDS011;9071;48.220;14.480;2022-07-24T17:27:01;6.43;;;5.82;;
17890;SDS011;9071;48.220;14.480;2022-07-24T17:32:04;6.95;;;6.07;;
17890;SDS011;9071;48.220;14.480;2022-07-24T17:37:07;7.78;;;6.07;;
17890;SDS011;9071;48.220;14.480;2022-07-24T17:42:09;6.95;;;6.03;;
17890;SDS011;9071;48.220;14.480;2022-07-24T17:47:12;6.05;;;5.55;;
17890;SDS011;9071;48.220;14.480;2022-07-24T17:52:14;8.20;;;6.30;;
17890;SDS011;9071;48.220;14.480;2022-07-24T17:57:16;7.00;;;5.93;;
17890;SDS011;9071;48.220;14.480;2022-07-24T18:02:20;6.55;;;5.85;;
17890;SDS011;9071;48.220;14.480;2022-07-24T18:07:22;7.18;;;6.22;;
17890;SDS011;9071;48.220;14.480;2022-07-24T18:12:24;9.27;;;7.30;;
17890;SDS011;9071;48.220;14.480;2022-07-24T18:17:28;6.70;;;6.00;;
17890;SDS011;9071;48.220;14.480;2022-07-24T18:22:30;9.32;;;6.55;;
17890;SDS011;9071;48.220;14.480;2022-07-24T18:27:32;8.57;;;5.95;;
17890;SDS011;9071;48.220;14.480;2022-07-24T18:32:35;7.55;;;6.75;;
17890;SDS011;9071;48.220;14.480;2022-07-24T18:37:37;15.07;;;10.38;;
17890;SDS011;9071;48.220;14.480;2022-07-24T18:42:40;13.93;;;10.40;;
17890;SDS011;9071;48.220;14.480;2022-07-24T18:47:43;14.13;;;9.48;;
17890;SDS011;9071;48.220;14.480;2022-07-24T18:52:45;10.98;;;8.25;;
17890;SDS011;9071;48.220;14.480;2022-07-24T18:57:49;12.20;;;8.20;;
17890;SDS011;9071;48.220;14.480;2022-07-24T19:02:52;11.30;;;8.43;;
17890;SDS011;9071;48.220;14.480;2022-07-24T19:07:54;9.75;;;8.55;;
17890;SDS011;9071;48.220;14.480;2022-07-24T19:12:56;10.27;;;8.40;;
17890;SDS011;9071;48.220;14.480;2022-07-24T19:18:00;15.25;;;9.15;;
17890;SDS011;9071;48.220;14.480;2022-07-24T19:23:02;13.55;;;9.10;;
17890;SDS011;9071;48.220;14.480;2022-07-24T19:28:04;9.35;;;8.20;;
17890;SDS011;9071;48.220;14.480;2022-07-24T19:33:07;9.75;;;8.75;;
17890;SDS011;9071;48.220;14.480;2022-07-24T19:38:10;11.30;;;8.65;;
17890;SDS011;9071;48.220;14.480;2022-07-24T19:43:12;12.80;;;8.93;;
17890;SDS011;9071;48.220;14.480;2022-07-24T19:48:15;9.48;;;7.88;;
17890;SDS011;9071;48.220;14.480;2022-07-24T19:53:17;10.32;;;8.75;;
17890;SDS011;9071;48.220;14.480;2022-07-24T19:58:19;9.00;;;8.10;;
17890;SDS011;9071;48.220;14.480;2022-07-24T20:03:23;13.32;;;9.23;;
17890;SDS011;9071;48.220;14.480;2022-07-24T20:08:25;11.32;;;9.38;;
17890;SDS011;9071;48.220;14.480;2022-07-24T20:13:27;12.30;;;9.45;;
17890;SDS011;9071;48.220;14.480;2022-07-24T20:18:31;10.70;;;9.02;;
17890;SDS011;9071;48.220;14.480;2022-07-24T20:23:33;9.85;;;8.77;;
17890;SDS011;9071;48.220;14.480;2022-07-24T20:28:35;10.25;;;7.85;;
17890;SDS011;9071;48.220;14.480;2022-07-24T20:33:39;9.60;;;8.10;;
17890;SDS011;9071;48.220;14.480;2022-07-24T20:38:41;9.25;;;8.32;;
17890;SDS011;9071;48.220;14.480;2022-07-24T20:43:44;8.75;;;7.93;;
17890;SDS011;9071;48.220;14.480;2022-07-24T20:48:47;10.00;;;8.88;;
17890;SDS011;9071;48.220;14.480;2022-07-24T20:53:49;11.27;;;8.70;;
17890;SDS011;9071;48.220;14.480;2022-07-24T20:58:51;9.63;;;8.65;;
17890;SDS011;9071;48.220;14.480;2022-07-24T21:03:55;10.77;;;9.18;;
17890;SDS011;9071;48.220;14.480;2022-07-24T21:08:57;12.02;;;9.05;;
17890;SDS011;9071;48.220;14.480;2022-07-24T21:13:59;10.38;;;9.30;;
17890;SDS011;9071;48.220;14.480;2022-07-24T21:19:02;12.68;;;9.23;;
17890;SDS011;9071;48.220;14.480;2022-07-24T21:24:05;10.15;;;9.10;;
17890;SDS011;9071;48.220;14.480;2022-07-24T21:29:07;10.55;;;8.93;;
17890;SDS011;9071;48.220;14.480;2022-07-24T21:34:11;9.98;;;8.98;;
17890;SDS011;9071;48.220;14.480;2022-07-24T21:39:13;12.38;;;9.00;;
17890;SDS011;9071;48.220;14.480;2022-07-24T21:44:15;14.60;;;9.32;;
17890;SDS011;9071;48.220;14.480;2022-07-24T21:49:19;12.93;;;10.40;;
17890;SDS011;9071;48.220;14.480;2022-07-24T21:54:21;12.00;;;10.05;;
17890;SDS011;9071;48.220;14.480;2022-07-24T21:59:23;14.25;;;11.00;;
17890;SDS011;9071;48.220;14.480;2022-07-24T22:04:26;13.85;;;10.70;;
17890;SDS011;9071;48.220;14.480;2022-07-24T22:09:29;13.15;;;10.10;;
17890;SDS011;9071;48.220;14.480;2022-07-24T22:14:31;13.65;;;10.60;;
17890;SDS011;9071;48.220;14.480;2022-07-24T22:19:34;14.70;;;11.32;;
17890;SDS011;9071;48.220;14.480;2022-07-24T22:24:36;17.00;;;10.52;;
17890;SDS011;9071;48.220;14.480;2022-07-24T22:29:38;14.13;;;10.70;;
17890;SDS011;9071;48.220;14.480;2022-07-24T22:34:42;14.18;;;11.38;;
17890;SDS011;9071;48.220;14.480;2022-07-24T22:39:44;17.70;;;11.45;;
17890;SDS011;9071;48.220;14.480;2022-07-24T22:44:48;15.27;;;10.73;;
17890;SDS011;9071;48.220;14.480;2022-07-24T22:49:52;13.63;;;11.45;;
17890;SDS011;9071;48.220;14.480;2022-07-24T22:54:55;12.98;;;11.02;;
17890;SDS011;9071;48.220;14.480;2022-07-24T22:59:57;13.23;;;11.73;;
17890;SDS011;9071;48.220;14.480;2022-07-24T23:05:01;14.63;;;10.65;;
17890;SDS011;9071;48.220;14.480;2022-07-24T23:10:04;14.90;;;11.23;;
17890;SDS011;9071;48.220;14.480;2022-07-24T23:15:07;13.73;;;12.23;;
17890;SDS011;9071;48.220;14.480;2022-07-24T23:20:11;12.95;;;11.63;;
17890;SDS011;9071;48.220;14.480;2022-07-24T23:25:13;18.67;;;12.05;;
17890;SDS011;9071;48.220;14.480;2022-07-24T23:30:16;15.85;;;12.70;;
17890;SDS011;9071;48.220;14.480;2022-07-24T23:35:19;17.83;;;13.38;;
17890;SDS011;9071;48.220;14.480;2022-07-24T23:40:22;16.38;;;12.30;;
17890;SDS011;9071;48.220;14.480;2022-07-24T23:45:24;14.63;;;11.75;;
17890;SDS011;9071;48.220;14.480;2022-07-24T23:50:28;14.55;;;12.63;;
17890;SDS011;9071;48.220;14.480;2022-07-24T23:55:30;12.98;;;11.65;;
